sensor_id;sensor_type;location;lat;lon;timestamp;pressure;altitude;pressure_sealevel;temperature;humidity
64139;BME280;50435;43.700;-79.318;2023-01-31T00:01:29;100829.42;;;-0.09;49.89
64139;BME280;50435;43.700;-79.318;2023-01-31T00:03:59;100827.30;;;-0.15;49.94
64139;BME280;50435;43.700;-79.318;2023-01-31T00:06:28;100820.43;;;-0.08;49.78
64139;BME280;50435;43.700;-79.318;2023-01-31T00:08:58;100824.81;;;-0.60;49.84
64139;BME280;50435;43.700;-79.318;2023-01-31T00:11:27;100829.64;;;-0.33;49.82
64139;BME280;50435;43.700;-79.318;2023-01-31T00:13:57;100832.95;;;-0.06;49.31
64139;BME280;50435;43.700;-79.318;2023-01-31T00:16:25;100832.43;;;-0.14;48.87
64139;BME280;50435;43.700;-79.318;2023-01-31T00:18:53;100832.87;;;-0.02;49.10
64139;BME280;50435;43.700;-79.318;2023-01-31T00:21:23;100834.29;;;-0.45;48.99
64139;BME280;50435;43.700;-79.318;2023-01-31T00:23:52;100841.82;;;-0.19;48.75
64139;BME280;50435;43.700;-79.318;2023-01-31T00:26:22;100843.38;;;-0.27;49.19
64139;BME280;50435;43.700;-79.318;2023-01-31T00:28:52;100850.69;;;-0.14;49.08
64139;BME280;50435;43.700;-79.318;2023-01-31T00:31:20;100852.36;;;-0.05;48.93
64139;BME280;50435;43.700;-79.318;2023-01-31T00:33:50;100853.31;;;-0.21;49.19
64139;BME280;50435;43.700;-79.318;2023-01-31T00:36:19;100849.67;;;-0.37;49.03
64139;BME280;50435;43.700;-79.318;2023-01-31T00:38:49;100844.04;;;-0.26;49.10
64139;BME280;50435;43.700;-79.318;2023-01-31T00:41:17;100847.72;;;-0.21;48.97
64139;BME280;50435;43.700;-79.318;2023-01-31T00:43:45;100845.63;;;-0.32;49.57
64139;BME280;50435;43.700;-79.318;2023-01-31T00:46:12;100844.50;;;-0.72;48.71
64139;BME280;50435;43.700;-79.318;2023-01-31T00:48:40;100847.15;;;-0.06;48.31
64139;BME280;50435;43.700;-79.318;2023-01-31T00:51:07;100849.67;;;-0.14;48.69
64139;BME280;50435;43.700;-79.318;2023-01-31T00:53:35;100841.74;;;-0.33;48.31
64139;BME280;50435;43.700;-79.318;2023-01-31T00:56:04;100842.83;;;-0.21;48.61
64139;BME280;50435;43.700;-79.318;2023-01-31T00:58:32;100841.91;;;-0.41;48.91
64139;BME280;50435;43.700;-79.318;2023-01-31T01:01:06;100849.10;;;-0.48;49.73
64139;BME280;50435;43.700;-79.318;2023-01-31T01:03:34;100841.81;;;-0.42;48.90
64139;BME280;50435;43.700;-79.318;2023-01-31T01:06:02;100846.17;;;-0.32;48.78
64139;BME280;50435;43.700;-79.318;2023-01-31T01:08:30;100842.11;;;-0.47;48.68
64139;BME280;50435;43.700;-79.318;2023-01-31T01:11:04;100852.09;;;-0.66;50.26
64139;BME280;50435;43.700;-79.318;2023-01-31T01:13:32;100855.90;;;-0.54;48.94
64139;BME280;50435;43.700;-79.318;2023-01-31T01:16:03;100854.71;;;-0.40;49.08
64139;BME280;50435;43.700;-79.318;2023-01-31T01:18:31;100851.60;;;-0.76;49.51
64139;BME280;50435;43.700;-79.318;2023-01-31T01:21:05;100853.55;;;-0.56;48.84
64139;BME280;50435;43.700;-79.318;2023-01-31T01:23:33;100854.43;;;-0.60;49.77
64139;BME280;50435;43.700;-79.318;2023-01-31T01:26:00;100852.94;;;-0.53;48.68
64139;BME280;50435;43.700;-79.318;2023-01-31T01:28:27;100851.99;;;-0.68;48.69
64139;BME280;50435;43.700;-79.318;2023-01-31T01:30:55;100851.40;;;-0.46;48.62
64139;BME280;50435;43.700;-79.318;2023-01-31T01:33:22;100842.35;;;-0.53;48.67
64139;BME280;50435;43.700;-79.318;2023-01-31T01:35:50;100840.11;;;-0.34;48.68
64139;BME280;50435;43.700;-79.318;2023-01-31T01:38:17;100839.75;;;-0.58;48.81
64139;BME280;50435;43.700;-79.318;2023-01-31T01:40:45;100843.17;;;-0.56;48.53
64139;BME280;50435;43.700;-79.318;2023-01-31T01:43:12;100848.50;;;-0.58;48.73
64139;BME280;50435;43.700;-79.318;2023-01-31T01:45:40;100851.93;;;-0.66;48.76
64139;BME280;50435;43.700;-79.318;2023-01-31T01:48:11;100848.92;;;-0.55;49.00
64139;BME280;50435;43.700;-79.318;2023-01-31T01:50:44;100849.06;;;-0.73;48.89
64139;BME280;50435;43.700;-79.318;2023-01-31T01:53:15;100854.12;;;-1.23;48.95
64139;BME280;50435;43.700;-79.318;2023-01-31T01:55:47;100853.89;;;-0.83;49.58
64139;BME280;50435;43.700;-79.318;2023-01-31T01:58:18;100856.57;;;-0.81;49.18
64139;BME280;50435;43.700;-79.318;2023-01-31T02:00:48;100852.56;;;-0.77;50.28
64139;BME280;50435;43.700;-79.318;2023-01-31T02:03:16;100854.33;;;-0.84;49.07
64139;BME280;50435;43.700;-79.318;2023-01-31T02:05:45;100856.20;;;-0.95;49.88
64139;BME280;50435;43.700;-79.318;2023-01-31T02:08:17;100858.36;;;-0.99;49.33
64139;BME280;50435;43.700;-79.318;2023-01-31T02:10:48;100862.68;;;-0.89;49.16
64139;BME280;50435;43.700;-79.318;2023-01-31T02:13:16;100866.13;;;-0.93;49.12
64139;BME280;50435;43.700;-79.318;2023-01-31T02:15:45;100870.54;;;-0.94;49.05
64139;BME280;50435;43.700;-79.318;2023-01-31T02:18:13;100875.62;;;-1.51;49.25
64139;BME280;50435;43.700;-79.318;2023-01-31T02:22:03;100873.64;;;-1.03;49.33
64139;BME280;50435;43.700;-79.318;2023-01-31T02:26:59;100874.21;;;-0.80;50.46
64139;BME280;50435;43.700;-79.318;2023-01-31T02:29:45;100877.20;;;-1.22;50.26
64139;BME280;50435;43.700;-79.318;2023-01-31T02:32:44;100876.43;;;-1.33;50.86
64139;BME280;50435;43.700;-79.318;2023-01-31T02:35:22;100878.07;;;-1.26;49.92
64139;BME280;50435;43.700;-79.318;2023-01-31T02:38:01;100879.76;;;-1.19;49.19
64139;BME280;50435;43.700;-79.318;2023-01-31T02:40:36;100876.34;;;-1.00;50.14
64139;BME280;50435;43.700;-79.318;2023-01-31T02:43:10;100876.36;;;-1.06;49.36
64139;BME280;50435;43.700;-79.318;2023-01-31T02:45:43;100883.01;;;-1.25;50.20
64139;BME280;50435;43.700;-79.318;2023-01-31T02:48:20;100883.45;;;-1.48;51.01
64139;BME280;50435;43.700;-79.318;2023-01-31T02:50:58;100885.80;;;-1.41;51.10
64139;BME280;50435;43.700;-79.318;2023-01-31T02:53:31;100886.83;;;-0.98;50.45
64139;BME280;50435;43.700;-79.318;2023-01-31T02:56:03;100890.78;;;-1.39;50.17
64139;BME280;50435;43.700;-79.318;2023-01-31T02:58:35;100893.50;;;-1.32;50.02
64139;BME280;50435;43.700;-79.318;2023-01-31T03:01:04;100890.44;;;-1.10;49.34
64139;BME280;50435;43.700;-79.318;2023-01-31T03:03:34;100891.26;;;-1.37;49.28
64139;BME280;50435;43.700;-79.318;2023-01-31T03:06:45;100885.98;;;-1.26;50.65
64139;BME280;50435;43.700;-79.318;2023-01-31T03:09:18;100894.24;;;-1.66;50.67
64139;BME280;50435;43.700;-79.318;2023-01-31T03:11:51;100896.70;;;-1.40;49.98
64139;BME280;50435;43.700;-79.318;2023-01-31T03:14:26;100892.76;;;-1.31;50.39
64139;BME280;50435;43.700;-79.318;2023-01-31T03:17:00;100894.85;;;-1.10;49.02
64139;BME280;50435;43.700;-79.318;2023-01-31T03:19:35;100896.65;;;-1.64;50.72
64139;BME280;50435;43.700;-79.318;2023-01-31T03:22:09;100899.40;;;-1.19;50.11
64139;BME280;50435;43.700;-79.318;2023-01-31T03:24:38;100907.49;;;-1.67;51.28
64139;BME280;50435;43.700;-79.318;2023-01-31T03:27:07;100910.20;;;-1.54;51.09
64139;BME280;50435;43.700;-79.318;2023-01-31T03:29:35;100908.08;;;-1.39;49.53
64139;BME280;50435;43.700;-79.318;2023-01-31T03:32:07;100916.52;;;-1.43;50.02
64139;BME280;50435;43.700;-79.318;2023-01-31T03:34:38;100923.14;;;-1.52;50.78
64139;BME280;50435;43.700;-79.318;2023-01-31T03:37:11;100923.59;;;-1.39;51.03
64139;BME280;50435;43.700;-79.318;2023-01-31T03:39:45;100931.75;;;-1.38;51.13
64139;BME280;50435;43.700;-79.318;2023-01-31T03:42:20;100931.48;;;-1.67;50.86
64139;BME280;50435;43.700;-79.318;2023-01-31T03:44:54;100927.34;;;-1.58;50.20
64139;BME280;50435;43.700;-79.318;2023-01-31T03:47:26;100922.82;;;-1.79;50.26
64139;BME280;50435;43.700;-79.318;2023-01-31T03:50:03;100919.02;;;-1.58;49.75
64139;BME280;50435;43.700;-79.318;2023-01-31T03:52:34;100917.99;;;-1.27;49.85
64139;BME280;50435;43.700;-79.318;2023-01-31T03:55:10;100916.64;;;-1.25;50.28
64139;BME280;50435;43.700;-79.318;2023-01-31T03:57:41;100913.17;;;-1.64;50.27
64139;BME280;50435;43.700;-79.318;2023-01-31T04:00:12;100911.03;;;-1.90;50.36
64139;BME280;50435;43.700;-79.318;2023-01-31T04:02:41;100921.78;;;-1.51;50.67
64139;BME280;50435;43.700;-79.318;2023-01-31T04:05:11;100924.25;;;-1.51;50.75
64139;BME280;50435;43.700;-79.318;2023-01-31T04:07:40;100927.04;;;-1.51;50.72
64139;BME280;50435;43.700;-79.318;2023-01-31T04:10:11;100924.60;;;-1.72;51.28
64139;BME280;50435;43.700;-79.318;2023-01-31T04:12:39;100925.39;;;-1.83;50.64
64139;BME280;50435;43.700;-79.318;2023-01-31T04:15:08;100917.80;;;-1.71;49.57
64139;BME280;50435;43.700;-79.318;2023-01-31T04:17:36;100924.36;;;-1.50;50.65
64139;BME280;50435;43.700;-79.318;2023-01-31T04:20:05;100924.31;;;-1.82;50.44
64139;BME280;50435;43.700;-79.318;2023-01-31T04:22:33;100925.41;;;-1.74;51.30
64139;BME280;50435;43.700;-79.318;2023-01-31T04:25:00;100927.99;;;-1.96;51.82
64139;BME280;50435;43.700;-79.318;2023-01-31T04:27:28;100926.00;;;-2.03;51.09
64139;BME280;50435;43.700;-79.318;2023-01-31T04:29:55;100921.42;;;-1.61;50.13
64139;BME280;50435;43.700;-79.318;2023-01-31T04:32:23;100926.20;;;-1.67;50.71
64139;BME280;50435;43.700;-79.318;2023-01-31T04:34:50;100925.52;;;-1.83;51.16
64139;BME280;50435;43.700;-79.318;2023-01-31T04:37:18;100923.91;;;-1.77;51.17
64139;BME280;50435;43.700;-79.318;2023-01-31T04:39:45;100923.95;;;-1.63;50.83
64139;BME280;50435;43.700;-79.318;2023-01-31T04:42:12;100921.06;;;-2.26;51.22
64139;BME280;50435;43.700;-79.318;2023-01-31T04:44:40;100926.06;;;-1.83;50.80
64139;BME280;50435;43.700;-79.318;2023-01-31T04:47:07;100925.73;;;-1.82;51.12
64139;BME280;50435;43.700;-79.318;2023-01-31T04:49:35;100921.88;;;-1.95;51.02
64139;BME280;50435;43.700;-79.318;2023-01-31T04:52:02;100923.32;;;-1.82;51.05
64139;BME280;50435;43.700;-79.318;2023-01-31T04:54:30;100922.89;;;-1.88;50.73
64139;BME280;50435;43.700;-79.318;2023-01-31T04:56:58;100924.24;;;-1.90;51.17
64139;BME280;50435;43.700;-79.318;2023-01-31T04:59:25;100930.83;;;-2.03;49.89
64139;BME280;50435;43.700;-79.318;2023-01-31T05:01:53;100928.84;;;-2.01;50.36
64139;BME280;50435;43.700;-79.318;2023-01-31T05:04:20;100929.86;;;-1.80;50.72
64139;BME280;50435;43.700;-79.318;2023-01-31T05:06:48;100926.28;;;-2.36;51.82
64139;BME280;50435;43.700;-79.318;2023-01-31T05:09:15;100924.29;;;-2.22;50.68
64139;BME280;50435;43.700;-79.318;2023-01-31T05:11:43;100924.44;;;-1.58;50.72
64139;BME280;50435;43.700;-79.318;2023-01-31T05:14:10;100922.73;;;-2.33;50.64
64139;BME280;50435;43.700;-79.318;2023-01-31T05:16:38;100924.35;;;-2.28;51.13
64139;BME280;50435;43.700;-79.318;2023-01-31T05:19:05;100927.94;;;-2.00;50.71
64139;BME280;50435;43.700;-79.318;2023-01-31T05:21:33;100929.33;;;-2.15;50.48
64139;BME280;50435;43.700;-79.318;2023-01-31T05:24:00;100936.25;;;-1.81;49.93
64139;BME280;50435;43.700;-79.318;2023-01-31T05:26:27;100941.62;;;-2.16;51.48
64139;BME280;50435;43.700;-79.318;2023-01-31T05:28:55;100936.30;;;-1.85;50.13
64139;BME280;50435;43.700;-79.318;2023-01-31T05:31:22;100941.19;;;-2.32;50.86
64139;BME280;50435;43.700;-79.318;2023-01-31T05:33:50;100942.05;;;-2.11;50.97
64139;BME280;50435;43.700;-79.318;2023-01-31T05:36:17;100942.64;;;-2.29;50.76
64139;BME280;50435;43.700;-79.318;2023-01-31T05:38:45;100942.75;;;-2.09;51.10
64139;BME280;50435;43.700;-79.318;2023-01-31T05:41:12;100941.73;;;-2.21;50.20
64139;BME280;50435;43.700;-79.318;2023-01-31T05:43:40;100943.66;;;-2.10;50.64
64139;BME280;50435;43.700;-79.318;2023-01-31T05:46:07;100948.38;;;-2.03;49.97
64139;BME280;50435;43.700;-79.318;2023-01-31T05:48:35;100947.63;;;-2.45;50.91
64139;BME280;50435;43.700;-79.318;2023-01-31T05:51:02;100951.22;;;-2.02;50.48
64139;BME280;50435;43.700;-79.318;2023-01-31T05:53:30;100951.65;;;-2.00;49.60
64139;BME280;50435;43.700;-79.318;2023-01-31T05:55:57;100955.35;;;-2.06;50.35
64139;BME280;50435;43.700;-79.318;2023-01-31T05:58:24;100957.82;;;-2.17;50.48
64139;BME280;50435;43.700;-79.318;2023-01-31T06:00:54;100958.73;;;-2.15;50.89
64139;BME280;50435;43.700;-79.318;2023-01-31T06:03:22;100956.37;;;-2.14;50.44
64139;BME280;50435;43.700;-79.318;2023-01-31T06:05:49;100960.26;;;-2.53;51.84
64139;BME280;50435;43.700;-79.318;2023-01-31T06:08:17;100956.58;;;-2.40;49.76
64139;BME280;50435;43.700;-79.318;2023-01-31T06:10:44;100954.38;;;-2.20;50.27
64139;BME280;50435;43.700;-79.318;2023-01-31T06:13:12;100958.30;;;-2.30;49.59
64139;BME280;50435;43.700;-79.318;2023-01-31T06:15:42;100961.57;;;-2.08;49.27
64139;BME280;50435;43.700;-79.318;2023-01-31T06:18:09;100963.18;;;-2.40;49.54
64139;BME280;50435;43.700;-79.318;2023-01-31T06:20:37;100962.90;;;-2.41;51.24
64139;BME280;50435;43.700;-79.318;2023-01-31T06:23:04;100968.43;;;-2.26;50.18
64139;BME280;50435;43.700;-79.318;2023-01-31T06:25:32;100977.76;;;-2.24;50.61
64139;BME280;50435;43.700;-79.318;2023-01-31T06:27:59;100977.06;;;-2.24;50.59
64139;BME280;50435;43.700;-79.318;2023-01-31T06:30:27;100978.89;;;-2.15;50.03
64139;BME280;50435;43.700;-79.318;2023-01-31T06:32:54;100986.51;;;-2.16;49.40
64139;BME280;50435;43.700;-79.318;2023-01-31T06:35:22;100988.86;;;-2.20;49.10
64139;BME280;50435;43.700;-79.318;2023-01-31T06:37:49;100994.28;;;-2.22;49.18
64139;BME280;50435;43.700;-79.318;2023-01-31T06:40:17;100999.21;;;-2.54;49.92
64139;BME280;50435;43.700;-79.318;2023-01-31T06:42:44;100998.12;;;-1.94;50.67
64139;BME280;50435;43.700;-79.318;2023-01-31T06:45:12;101002.88;;;-2.96;50.73
64139;BME280;50435;43.700;-79.318;2023-01-31T06:47:39;101003.71;;;-2.34;49.86
64139;BME280;50435;43.700;-79.318;2023-01-31T06:50:08;101011.05;;;-2.35;49.73
64139;BME280;50435;43.700;-79.318;2023-01-31T06:52:36;101015.52;;;-2.11;50.85
64139;BME280;50435;43.700;-79.318;2023-01-31T06:55:04;101010.59;;;-2.33;50.46
64139;BME280;50435;43.700;-79.318;2023-01-31T06:57:32;101016.13;;;-2.47;50.66
64139;BME280;50435;43.700;-79.318;2023-01-31T06:59:59;101022.46;;;-2.39;49.76
64139;BME280;50435;43.700;-79.318;2023-01-31T07:02:27;101023.01;;;-2.10;49.71
64139;BME280;50435;43.700;-79.318;2023-01-31T07:04:54;101027.45;;;-2.39;50.28
64139;BME280;50435;43.700;-79.318;2023-01-31T07:07:21;101027.45;;;-2.40;49.67
64139;BME280;50435;43.700;-79.318;2023-01-31T07:09:49;101031.38;;;-2.32;49.07
64139;BME280;50435;43.700;-79.318;2023-01-31T07:12:16;101030.93;;;-2.45;49.73
64139;BME280;50435;43.700;-79.318;2023-01-31T07:14:44;101040.53;;;-2.20;50.12
64139;BME280;50435;43.700;-79.318;2023-01-31T07:17:11;101044.34;;;-2.40;49.41
64139;BME280;50435;43.700;-79.318;2023-01-31T07:19:38;101050.50;;;-2.23;49.93
64139;BME280;50435;43.700;-79.318;2023-01-31T07:22:06;101055.14;;;-2.07;49.66
64139;BME280;50435;43.700;-79.318;2023-01-31T07:24:34;101060.56;;;-2.00;49.28
64139;BME280;50435;43.700;-79.318;2023-01-31T07:27:01;101063.10;;;-2.18;48.65
64139;BME280;50435;43.700;-79.318;2023-01-31T07:29:29;101073.19;;;-2.62;50.10
64139;BME280;50435;43.700;-79.318;2023-01-31T07:31:56;101073.73;;;-2.35;49.52
64139;BME280;50435;43.700;-79.318;2023-01-31T07:34:24;101079.41;;;-2.36;48.52
64139;BME280;50435;43.700;-79.318;2023-01-31T07:36:51;101078.95;;;-2.49;49.73
64139;BME280;50435;43.700;-79.318;2023-01-31T07:39:19;101077.89;;;-2.47;50.37
64139;BME280;50435;43.700;-79.318;2023-01-31T07:41:46;101081.88;;;-2.60;50.20
64139;BME280;50435;43.700;-79.318;2023-01-31T07:44:14;101083.20;;;-2.67;49.94
64139;BME280;50435;43.700;-79.318;2023-01-31T07:46:41;101093.78;;;-2.57;49.99
64139;BME280;50435;43.700;-79.318;2023-01-31T07:49:09;101090.10;;;-2.70;49.44
64139;BME280;50435;43.700;-79.318;2023-01-31T07:51:36;101089.19;;;-2.00;48.93
64139;BME280;50435;43.700;-79.318;2023-01-31T07:54:04;101091.89;;;-2.44;48.50
64139;BME280;50435;43.700;-79.318;2023-01-31T07:56:32;101093.67;;;-2.58;49.09
64139;BME280;50435;43.700;-79.318;2023-01-31T07:58:59;101105.84;;;-2.11;49.71
64139;BME280;50435;43.700;-79.318;2023-01-31T08:01:27;101112.30;;;-2.67;49.03
64139;BME280;50435;43.700;-79.318;2023-01-31T08:03:55;101113.48;;;-2.68;49.12
64139;BME280;50435;43.700;-79.318;2023-01-31T08:06:24;101110.68;;;-2.49;49.52
64139;BME280;50435;43.700;-79.318;2023-01-31T08:08:51;101107.28;;;-2.14;49.66
64139;BME280;50435;43.700;-79.318;2023-01-31T08:11:19;101107.13;;;-2.58;48.37
64139;BME280;50435;43.700;-79.318;2023-01-31T08:13:46;101107.42;;;-2.28;48.34
64139;BME280;50435;43.700;-79.318;2023-01-31T08:16:14;101113.21;;;-2.69;48.74
64139;BME280;50435;43.700;-79.318;2023-01-31T08:18:41;101112.01;;;-2.34;48.47
64139;BME280;50435;43.700;-79.318;2023-01-31T08:21:11;101113.67;;;-2.08;48.68
64139;BME280;50435;43.700;-79.318;2023-01-31T08:23:39;101113.38;;;-2.33;50.45
64139;BME280;50435;43.700;-79.318;2023-01-31T08:26:09;101111.43;;;-2.66;49.96
64139;BME280;50435;43.700;-79.318;2023-01-31T08:28:38;101104.45;;;-2.09;48.31
64139;BME280;50435;43.700;-79.318;2023-01-31T08:31:06;101113.84;;;-2.25;48.78
64139;BME280;50435;43.700;-79.318;2023-01-31T08:33:38;101117.37;;;-2.69;49.90
64139;BME280;50435;43.700;-79.318;2023-01-31T08:36:10;101119.25;;;-2.26;48.91
64139;BME280;50435;43.700;-79.318;2023-01-31T08:38:38;101124.00;;;-2.57;49.61
64139;BME280;50435;43.700;-79.318;2023-01-31T08:41:05;101129.68;;;-2.30;48.87
64139;BME280;50435;43.700;-79.318;2023-01-31T08:43:33;101127.48;;;-2.42;48.80
64139;BME280;50435;43.700;-79.318;2023-01-31T08:46:00;101133.74;;;-2.84;48.96
64139;BME280;50435;43.700;-79.318;2023-01-31T08:48:28;101132.34;;;-2.21;48.62
64139;BME280;50435;43.700;-79.318;2023-01-31T08:50:55;101137.25;;;-2.55;48.65
64139;BME280;50435;43.700;-79.318;2023-01-31T08:53:23;101134.38;;;-2.85;49.79
64139;BME280;50435;43.700;-79.318;2023-01-31T08:55:50;101133.51;;;-2.07;48.14
64139;BME280;50435;43.700;-79.318;2023-01-31T08:58:18;101138.51;;;-2.68;48.53
64139;BME280;50435;43.700;-79.318;2023-01-31T09:00:45;101145.36;;;-2.21;48.57
64139;BME280;50435;43.700;-79.318;2023-01-31T09:03:15;101144.52;;;-2.82;48.82
64139;BME280;50435;43.700;-79.318;2023-01-31T09:05:42;101147.37;;;-2.15;48.08
64139;BME280;50435;43.700;-79.318;2023-01-31T09:08:09;101145.41;;;-2.71;48.01
64139;BME280;50435;43.700;-79.318;2023-01-31T09:10:36;101154.19;;;-2.52;48.45
64139;BME280;50435;43.700;-79.318;2023-01-31T09:13:04;101159.89;;;-2.48;48.68
64139;BME280;50435;43.700;-79.318;2023-01-31T09:15:31;101158.01;;;-2.63;48.40
64139;BME280;50435;43.700;-79.318;2023-01-31T09:17:59;101156.38;;;-2.42;48.53
64139;BME280;50435;43.700;-79.318;2023-01-31T09:20:26;101163.31;;;-2.88;48.30
64139;BME280;50435;43.700;-79.318;2023-01-31T09:22:54;101163.65;;;-2.34;48.30
64139;BME280;50435;43.700;-79.318;2023-01-31T09:25:21;101169.05;;;-2.76;49.56
64139;BME280;50435;43.700;-79.318;2023-01-31T09:27:51;101177.86;;;-2.56;49.08
64139;BME280;50435;43.700;-79.318;2023-01-31T09:30:19;101177.59;;;-2.70;48.41
64139;BME280;50435;43.700;-79.318;2023-01-31T09:32:46;101181.24;;;-2.56;47.89
64139;BME280;50435;43.700;-79.318;2023-01-31T09:35:13;101186.59;;;-2.93;48.31
64139;BME280;50435;43.700;-79.318;2023-01-31T09:37:41;101184.46;;;-2.78;50.20
64139;BME280;50435;43.700;-79.318;2023-01-31T09:40:14;101189.61;;;-3.36;50.33
64139;BME280;50435;43.700;-79.318;2023-01-31T09:42:44;101200.96;;;-3.24;51.02
64139;BME280;50435;43.700;-79.318;2023-01-31T09:45:15;101201.62;;;-3.58;49.59
64139;BME280;50435;43.700;-79.318;2023-01-31T09:47:48;101201.41;;;-2.99;49.06
64139;BME280;50435;43.700;-79.318;2023-01-31T09:50:20;101203.96;;;-2.67;48.32
64139;BME280;50435;43.700;-79.318;2023-01-31T09:52:49;101202.49;;;-2.75;47.80
64139;BME280;50435;43.700;-79.318;2023-01-31T09:55:17;101203.01;;;-3.01;47.64
64139;BME280;50435;43.700;-79.318;2023-01-31T09:57:50;101205.02;;;-2.73;48.37
64139;BME280;50435;43.700;-79.318;2023-01-31T10:00:25;101206.77;;;-2.98;48.75
64139;BME280;50435;43.700;-79.318;2023-01-31T10:03:05;101205.61;;;-2.69;47.79
64139;BME280;50435;43.700;-79.318;2023-01-31T10:05:46;101207.33;;;-2.55;47.78
64139;BME280;50435;43.700;-79.318;2023-01-31T10:08:22;101209.33;;;-3.12;47.79
64139;BME280;50435;43.700;-79.318;2023-01-31T10:10:59;101200.01;;;-2.62;47.88
64139;BME280;50435;43.700;-79.318;2023-01-31T10:13:30;101197.45;;;-2.48;47.32
64139;BME280;50435;43.700;-79.318;2023-01-31T10:16:04;101203.84;;;-2.69;47.57
64139;BME280;50435;43.700;-79.318;2023-01-31T10:18:35;101207.82;;;-2.66;47.48
64139;BME280;50435;43.700;-79.318;2023-01-31T10:21:08;101205.68;;;-2.76;47.63
64139;BME280;50435;43.700;-79.318;2023-01-31T10:23:40;101206.54;;;-2.86;47.80
64139;BME280;50435;43.700;-79.318;2023-01-31T10:26:14;101209.21;;;-2.76;47.40
64139;BME280;50435;43.700;-79.318;2023-01-31T10:28:48;101214.97;;;-2.90;48.13
64139;BME280;50435;43.700;-79.318;2023-01-31T10:31:26;101218.87;;;-2.74;47.66
64139;BME280;50435;43.700;-79.318;2023-01-31T10:34:00;101228.20;;;-2.80;47.65
64139;BME280;50435;43.700;-79.318;2023-01-31T10:36:33;101230.44;;;-3.02;48.29
64139;BME280;50435;43.700;-79.318;2023-01-31T10:39:05;101236.30;;;-2.97;48.28
64139;BME280;50435;43.700;-79.318;2023-01-31T10:41:45;101238.95;;;-2.71;48.13
64139;BME280;50435;43.700;-79.318;2023-01-31T10:44:21;101243.90;;;-3.43;48.65
64139;BME280;50435;43.700;-79.318;2023-01-31T10:46:51;101244.15;;;-3.02;47.63
64139;BME280;50435;43.700;-79.318;2023-01-31T10:49:23;101242.90;;;-3.12;48.61
64139;BME280;50435;43.700;-79.318;2023-01-31T10:52:06;101248.19;;;-2.61;48.22
64139;BME280;50435;43.700;-79.318;2023-01-31T10:54:46;101249.42;;;-3.01;49.34
64139;BME280;50435;43.700;-79.318;2023-01-31T10:57:16;101245.64;;;-3.38;48.21
64139;BME280;50435;43.700;-79.318;2023-01-31T10:59:45;101247.15;;;-2.88;47.79
64139;BME280;50435;43.700;-79.318;2023-01-31T11:02:19;101248.76;;;-3.26;48.40
64139;BME280;50435;43.700;-79.318;2023-01-31T11:04:49;101253.13;;;-3.12;47.90
64139;BME280;50435;43.700;-79.318;2023-01-31T11:07:18;101260.90;;;-3.11;47.74
64139;BME280;50435;43.700;-79.318;2023-01-31T11:09:49;101264.99;;;-3.25;48.26
64139;BME280;50435;43.700;-79.318;2023-01-31T11:12:17;101266.91;;;-3.26;47.95
64139;BME280;50435;43.700;-79.318;2023-01-31T11:14:44;101270.35;;;-3.16;47.67
64139;BME280;50435;43.700;-79.318;2023-01-31T11:17:16;101265.81;;;-3.94;49.68
64139;BME280;50435;43.700;-79.318;2023-01-31T11:19:46;101267.90;;;-3.08;48.25
64139;BME280;50435;43.700;-79.318;2023-01-31T11:22:22;101268.50;;;-3.55;47.98
64139;BME280;50435;43.700;-79.318;2023-01-31T11:24:50;101271.56;;;-3.28;48.11
64139;BME280;50435;43.700;-79.318;2023-01-31T11:27:27;101279.65;;;-3.26;47.61
64139;BME280;50435;43.700;-79.318;2023-01-31T11:29:55;101288.84;;;-3.29;47.61
64139;BME280;50435;43.700;-79.318;2023-01-31T11:32:26;101295.79;;;-3.37;48.20
64139;BME280;50435;43.700;-79.318;2023-01-31T11:34:57;101302.46;;;-3.40;47.77
64139;BME280;50435;43.700;-79.318;2023-01-31T11:37:26;101312.09;;;-3.55;49.16
64139;BME280;50435;43.700;-79.318;2023-01-31T11:39:55;101309.01;;;-3.45;48.05
64139;BME280;50435;43.700;-79.318;2023-01-31T11:42:22;101312.01;;;-3.52;48.26
64139;BME280;50435;43.700;-79.318;2023-01-31T11:44:55;101314.79;;;-3.37;49.02
64139;BME280;50435;43.700;-79.318;2023-01-31T11:47:27;101311.61;;;-3.26;47.88
64139;BME280;50435;43.700;-79.318;2023-01-31T11:49:57;101317.18;;;-3.25;47.70
64139;BME280;50435;43.700;-79.318;2023-01-31T11:52:29;101316.48;;;-3.26;47.63
64139;BME280;50435;43.700;-79.318;2023-01-31T11:54:58;101322.66;;;-3.08;48.33
64139;BME280;50435;43.700;-79.318;2023-01-31T11:57:30;101320.48;;;-3.35;47.49
64139;BME280;50435;43.700;-79.318;2023-01-31T12:00:00;101328.34;;;-3.35;48.63
64139;BME280;50435;43.700;-79.318;2023-01-31T12:02:34;101324.49;;;-3.35;48.02
64139;BME280;50435;43.700;-79.318;2023-01-31T12:05:08;101325.21;;;-3.54;48.00
64139;BME280;50435;43.700;-79.318;2023-01-31T12:07:42;101328.91;;;-3.38;47.97
64139;BME280;50435;43.700;-79.318;2023-01-31T12:10:31;101330.12;;;-3.62;47.68
64139;BME280;50435;43.700;-79.318;2023-01-31T12:13:01;101334.91;;;-3.78;48.61
64139;BME280;50435;43.700;-79.318;2023-01-31T12:15:29;101340.59;;;-3.77;48.12
64139;BME280;50435;43.700;-79.318;2023-01-31T12:17:59;101348.61;;;-3.72;48.59
64139;BME280;50435;43.700;-79.318;2023-01-31T12:20:36;101358.79;;;-3.88;48.95
64139;BME280;50435;43.700;-79.318;2023-01-31T12:23:13;101359.60;;;-3.41;47.65
64139;BME280;50435;43.700;-79.318;2023-01-31T12:25:52;101366.80;;;-3.21;47.69
64139;BME280;50435;43.700;-79.318;2023-01-31T12:28:33;101366.74;;;-3.28;47.60
64139;BME280;50435;43.700;-79.318;2023-01-31T12:31:19;101366.44;;;-3.77;47.87
64139;BME280;50435;43.700;-79.318;2023-01-31T12:34:00;101370.62;;;-3.76;47.85
64139;BME280;50435;43.700;-79.318;2023-01-31T12:36:40;101360.76;;;-3.83;47.74
64139;BME280;50435;43.700;-79.318;2023-01-31T12:39:23;101364.71;;;-4.21;47.65
64139;BME280;50435;43.700;-79.318;2023-01-31T12:42:04;101360.18;;;-3.39;47.90
64139;BME280;50435;43.700;-79.318;2023-01-31T12:44:42;101361.68;;;-3.54;47.55
64139;BME280;50435;43.700;-79.318;2023-01-31T12:47:29;101361.64;;;-4.24;47.62
64139;BME280;50435;43.700;-79.318;2023-01-31T12:50:17;101368.33;;;-3.37;47.62